This is the latest recevied weather packets stored in our database for station/object OE2ATN. If no packets are shown the sender has not sent any weather packets the latest 10 day(s).
| Time | Temp. | Humidity | Pressure | Rain* | Wind** | Luminosity | Snow |
|---|---|---|---|---|---|---|---|
| 1777839929 | 15° C | 51% | 1021.4 hPa | 0 mm | - | - | - |
| 1777839629 | 15° C | 50% | 1021.3 hPa | 0 mm | - | - | - |
| 1777839328 | 15° C | 51% | 1021.3 hPa | 0 mm | - | - | - |
| 1777839027 | 15° C | 51% | 1021.4 hPa | 0 mm | - | - | - |
| 1777838728 | 15° C | 49% | 1021.3 hPa | 0 mm | - | - | - |
| 1777838427 | 15.56° C | 48% | 1021.3 hPa | 0 mm | - | - | - |
| 1777838127 | 15.56° C | 48% | 1021.4 hPa | 0 mm | - | - | - |
| 1777837828 | 15.56° C | 47% | 1021.4 hPa | 0 mm | - | - | - |
| 1777837528 | 15.56° C | 47% | 1021.2 hPa | 0 mm | - | - | - |
| 1777837227 | 15.56° C | 48% | 1021.3 hPa | 0 mm | - | - | - |
| 1777836928 | 16.11° C | 45% | 1021.1 hPa | 0 mm | - | - | - |
| 1777836628 | 16.11° C | 45% | 1021.1 hPa | 0 mm | - | - | - |
| 1777836327 | 16.67° C | 44% | 1021.1 hPa | 0 mm | - | - | - |
| 1777836026 | 16.11° C | 44% | 1021.1 hPa | 0 mm | - | - | - |
| 1777835727 | 16.67° C | 44% | 1021 hPa | 0 mm | - | - | - |
| 1777835427 | 16.67° C | 41% | 1020.8 hPa | 0 mm | - | - | - |
| 1777835127 | 16.67° C | 42% | 1020.8 hPa | 0 mm | - | - | - |
| 1777834827 | 16.11° C | 45% | 1020.7 hPa | 0 mm | - | - | - |
| 1777834527 | 16.67° C | 44% | 1020.7 hPa | 0 mm | - | - | - |
| 1777834226 | 16.67° C | 41% | 1020.6 hPa | 0 mm | - | - | - |
| 1777833926 | 16.67° C | 42% | 1020.6 hPa | 0 mm | - | - | - |
| 1777833626 | 17.78° C | 38% | 1020.6 hPa | 0 mm | - | - | - |
| 1777833325 | 17.78° C | 39% | 1020.5 hPa | 0 mm | - | - | - |
| 1777833025 | 17.78° C | 40% | 1020.4 hPa | 0 mm | - | - | - |
| 1777832726 | 18.33° C | 39% | 1020.3 hPa | 0 mm | - | - | - |
* Rain latest hour (hover to see other rain measurements)
** Current wind speed in m/s (hover to see current wind gust speed)